sensor_id;sensor_type;location;lat;lon;timestamp;P1;durP1;ratioP1;P2;durP2;ratioP2
55224;SDS011;41091;49.400;8.684;2023-02-01T00:01:17;2.30;;;2.20;;
55224;SDS011;41091;49.400;8.684;2023-02-01T00:03:42;2.67;;;2.47;;
55224;SDS011;41091;49.400;8.684;2023-02-01T00:06:10;2.83;;;2.38;;
55224;SDS011;41091;49.400;8.684;2023-02-01T00:08:35;3.20;;;2.60;;
55224;SDS011;41091;49.400;8.684;2023-02-01T00:11:04;3.58;;;2.38;;
55224;SDS011;41091;49.400;8.684;2023-02-01T00:13:31;5.28;;;2.47;;
55224;SDS011;41091;49.400;8.684;2023-02-01T00:18:30;3.13;;;2.60;;
55224;SDS011;41091;49.400;8.684;2023-02-01T00:20:58;2.38;;;2.17;;
55224;SDS011;41091;49.400;8.684;2023-02-01T00:23:23;6.68;;;2.85;;
55224;SDS011;41091;49.400;8.684;2023-02-01T00:25:49;2.58;;;2.25;;
55224;SDS011;41091;49.400;8.684;2023-02-01T00:28:16;3.00;;;2.80;;
55224;SDS011;41091;49.400;8.684;2023-02-01T00:30:42;2.47;;;2.22;;
55224;SDS011;41091;49.400;8.684;2023-02-01T00:33:07;2.30;;;2.10;;
55224;SDS011;41091;49.400;8.684;2023-02-01T00:35:36;3.88;;;3.17;;
55224;SDS011;41091;49.400;8.684;2023-02-01T00:38:01;3.45;;;2.90;;
55224;SDS011;41091;49.400;8.684;2023-02-01T00:40:31;2.55;;;2.42;;
55224;SDS011;41091;49.400;8.684;2023-02-01T00:42:56;6.60;;;2.50;;
55224;SDS011;41091;49.400;8.684;2023-02-01T00:45:24;2.90;;;2.60;;
55224;SDS011;41091;49.400;8.684;2023-02-01T00:47:50;10.15;;;2.67;;
55224;SDS011;41091;49.400;8.684;2023-02-01T00:50:17;5.20;;;2.70;;
55224;SDS011;41091;49.400;8.684;2023-02-01T00:52:42;2.65;;;2.45;;
55224;SDS011;41091;49.400;8.684;2023-02-01T00:55:08;2.63;;;2.40;;
55224;SDS011;41091;49.400;8.684;2023-02-01T00:57:33;2.13;;;2.00;;
55224;SDS011;41091;49.400;8.684;2023-02-01T00:59:59;5.40;;;2.65;;
55224;SDS011;41091;49.400;8.684;2023-02-01T01:02:25;3.08;;;2.72;;
55224;SDS011;41091;49.400;8.684;2023-02-01T01:04:51;3.05;;;2.85;;
55224;SDS011;41091;49.400;8.684;2023-02-01T01:07:19;2.35;;;2.25;;
55224;SDS011;41091;49.400;8.684;2023-02-01T01:09:44;4.72;;;2.72;;
55224;SDS011;41091;49.400;8.684;2023-02-01T01:12:12;2.80;;;2.13;;
55224;SDS011;41091;49.400;8.684;2023-02-01T01:14:43;2.47;;;2.28;;
55224;SDS011;41091;49.400;8.684;2023-02-01T01:17:09;2.85;;;2.65;;
55224;SDS011;41091;49.400;8.684;2023-02-01T01:19:36;3.45;;;2.95;;
55224;SDS011;41091;49.400;8.684;2023-02-01T01:22:02;2.85;;;2.63;;
55224;SDS011;41091;49.400;8.684;2023-02-01T01:24:30;2.90;;;2.65;;
55224;SDS011;41091;49.400;8.684;2023-02-01T01:26:55;4.10;;;3.20;;
55224;SDS011;41091;49.400;8.684;2023-02-01T01:29:20;2.97;;;2.70;;
55224;SDS011;41091;49.400;8.684;2023-02-01T01:31:46;4.35;;;3.13;;
55224;SDS011;41091;49.400;8.684;2023-02-01T01:34:11;5.38;;;3.00;;
55224;SDS011;41091;49.400;8.684;2023-02-01T01:36:39;3.03;;;2.70;;
55224;SDS011;41091;49.400;8.684;2023-02-01T01:39:04;4.82;;;2.85;;
55224;SDS011;41091;49.400;8.684;2023-02-01T01:41:32;3.22;;;2.72;;
55224;SDS011;41091;49.400;8.684;2023-02-01T01:44:02;2.90;;;2.70;;
55224;SDS011;41091;49.400;8.684;2023-02-01T01:46:34;2.63;;;2.53;;
55224;SDS011;41091;49.400;8.684;2023-02-01T01:49:07;4.82;;;2.72;;
55224;SDS011;41091;49.400;8.684;2023-02-01T01:51:37;2.58;;;2.45;;
55224;SDS011;41091;49.400;8.684;2023-02-01T01:54:14;3.72;;;2.40;;
55224;SDS011;41091;49.400;8.684;2023-02-01T01:56:46;3.17;;;2.72;;
55224;SDS011;41091;49.400;8.684;2023-02-01T01:59:16;4.80;;;2.42;;
55224;SDS011;41091;49.400;8.684;2023-02-01T02:01:42;8.13;;;2.78;;
55224;SDS011;41091;49.400;8.684;2023-02-01T02:04:07;3.65;;;2.65;;
55224;SDS011;41091;49.400;8.684;2023-02-01T02:09:04;4.03;;;2.90;;
55224;SDS011;41091;49.400;8.684;2023-02-01T02:11:29;6.35;;;2.88;;
55224;SDS011;41091;49.400;8.684;2023-02-01T02:13:57;3.40;;;2.45;;
55224;SDS011;41091;49.400;8.684;2023-02-01T02:16:29;2.75;;;2.53;;
55224;SDS011;41091;49.400;8.684;2023-02-01T02:19:30;3.42;;;2.28;;
55224;SDS011;41091;49.400;8.684;2023-02-01T02:28:04;2.85;;;2.65;;
55224;SDS011;41091;49.400;8.684;2023-02-01T02:36:55;5.30;;;3.95;;
55224;SDS011;41091;49.400;8.684;2023-02-01T02:45:09;4.07;;;2.90;;
55224;SDS011;41091;49.400;8.684;2023-02-01T02:50:58;5.00;;;3.85;;
55224;SDS011;41091;49.400;8.684;2023-02-01T02:56:43;4.07;;;3.22;;
55224;SDS011;41091;49.400;8.684;2023-02-01T02:59:27;7.45;;;3.70;;
55224;SDS011;41091;49.400;8.684;2023-02-01T03:02:14;5.55;;;3.67;;
55224;SDS011;41091;49.400;8.684;2023-02-01T03:04:59;3.40;;;3.20;;
55224;SDS011;41091;49.400;8.684;2023-02-01T03:10:16;3.58;;;3.13;;
55224;SDS011;41091;49.400;8.684;2023-02-01T03:12:46;3.83;;;3.45;;
55224;SDS011;41091;49.400;8.684;2023-02-01T03:15:22;5.53;;;3.80;;
55224;SDS011;41091;49.400;8.684;2023-02-01T03:17:56;9.38;;;3.60;;
55224;SDS011;41091;49.400;8.684;2023-02-01T03:20:23;6.95;;;3.47;;
55224;SDS011;41091;49.400;8.684;2023-02-01T03:22:49;4.32;;;3.20;;
55224;SDS011;41091;49.400;8.684;2023-02-01T03:25:20;4.65;;;3.83;;
55224;SDS011;41091;49.400;8.684;2023-02-01T03:27:49;3.97;;;2.90;;
55224;SDS011;41091;49.400;8.684;2023-02-01T03:32:50;3.90;;;2.85;;
55224;SDS011;41091;49.400;8.684;2023-02-01T03:38:01;4.72;;;2.38;;
55224;SDS011;41091;49.400;8.684;2023-02-01T03:40:35;3.17;;;2.88;;
55224;SDS011;41091;49.400;8.684;2023-02-01T03:43:01;4.38;;;2.70;;
55224;SDS011;41091;49.400;8.684;2023-02-01T03:45:34;3.67;;;3.28;;
55224;SDS011;41091;49.400;8.684;2023-02-01T03:48:04;3.58;;;3.20;;
55224;SDS011;41091;49.400;8.684;2023-02-01T03:50:30;5.60;;;3.70;;
55224;SDS011;41091;49.400;8.684;2023-02-01T03:53:00;6.88;;;3.35;;
55224;SDS011;41091;49.400;8.684;2023-02-01T03:55:33;5.55;;;3.22;;
55224;SDS011;41091;49.400;8.684;2023-02-01T03:58:04;8.15;;;4.07;;
55224;SDS011;41091;49.400;8.684;2023-02-01T04:00:31;6.03;;;3.97;;
55224;SDS011;41091;49.400;8.684;2023-02-01T04:02:56;4.00;;;3.22;;
55224;SDS011;41091;49.400;8.684;2023-02-01T04:05:24;11.20;;;4.65;;
55224;SDS011;41091;49.400;8.684;2023-02-01T04:07:52;3.88;;;3.38;;
55224;SDS011;41091;49.400;8.684;2023-02-01T04:10:17;7.18;;;4.50;;
55224;SDS011;41091;49.400;8.684;2023-02-01T04:12:42;6.57;;;3.25;;
55224;SDS011;41091;49.400;8.684;2023-02-01T04:15:08;3.88;;;3.55;;
55224;SDS011;41091;49.400;8.684;2023-02-01T04:17:33;5.30;;;3.08;;
55224;SDS011;41091;49.400;8.684;2023-02-01T04:19:59;3.60;;;3.28;;
55224;SDS011;41091;49.400;8.684;2023-02-01T04:22:26;4.53;;;3.63;;
55224;SDS011;41091;49.400;8.684;2023-02-01T04:24:54;6.47;;;3.25;;
55224;SDS011;41091;49.400;8.684;2023-02-01T04:27:22;3.97;;;3.17;;
55224;SDS011;41091;49.400;8.684;2023-02-01T04:29:50;4.40;;;3.45;;
55224;SDS011;41091;49.400;8.684;2023-02-01T04:32:15;11.02;;;4.22;;
55224;SDS011;41091;49.400;8.684;2023-02-01T04:34:45;7.03;;;3.88;;
55224;SDS011;41091;49.400;8.684;2023-02-01T04:37:15;7.22;;;3.30;;
55224;SDS011;41091;49.400;8.684;2023-02-01T04:39:42;4.82;;;3.42;;
55224;SDS011;41091;49.400;8.684;2023-02-01T04:42:08;6.57;;;3.13;;
55224;SDS011;41091;49.400;8.684;2023-02-01T04:44:35;4.05;;;3.60;;
55224;SDS011;41091;49.400;8.684;2023-02-01T04:47:06;6.55;;;3.47;;
55224;SDS011;41091;49.400;8.684;2023-02-01T04:49:34;10.30;;;4.10;;
55224;SDS011;41091;49.400;8.684;2023-02-01T04:52:04;7.38;;;3.42;;
55224;SDS011;41091;49.400;8.684;2023-02-01T04:54:32;5.47;;;3.63;;
55224;SDS011;41091;49.400;8.684;2023-02-01T04:56:59;4.68;;;3.22;;
55224;SDS011;41091;49.400;8.684;2023-02-01T04:59:25;6.30;;;4.00;;
55224;SDS011;41091;49.400;8.684;2023-02-01T05:01:50;6.63;;;3.50;;
55224;SDS011;41091;49.400;8.684;2023-02-01T05:04:16;6.38;;;3.63;;
55224;SDS011;41091;49.400;8.684;2023-02-01T05:06:44;5.15;;;3.53;;
55224;SDS011;41091;49.400;8.684;2023-02-01T05:09:09;3.38;;;3.15;;
55224;SDS011;41091;49.400;8.684;2023-02-01T05:11:35;4.15;;;3.28;;
55224;SDS011;41091;49.400;8.684;2023-02-01T05:14:21;7.97;;;3.47;;
55224;SDS011;41091;49.400;8.684;2023-02-01T05:16:46;7.78;;;3.40;;
55224;SDS011;41091;49.400;8.684;2023-02-01T05:19:14;3.67;;;3.33;;
55224;SDS011;41091;49.400;8.684;2023-02-01T05:21:39;7.05;;;3.83;;
55224;SDS011;41091;49.400;8.684;2023-02-01T05:24:07;5.88;;;3.17;;
55224;SDS011;41091;49.400;8.684;2023-02-01T05:26:39;7.07;;;3.00;;
55224;SDS011;41091;49.400;8.684;2023-02-01T05:29:08;4.38;;;4.00;;
55224;SDS011;41091;49.400;8.684;2023-02-01T05:31:34;4.00;;;3.60;;
55224;SDS011;41091;49.400;8.684;2023-02-01T05:34:02;5.10;;;3.03;;
55224;SDS011;41091;49.400;8.684;2023-02-01T05:36:30;3.58;;;3.15;;
55224;SDS011;41091;49.400;8.684;2023-02-01T05:38:56;2.45;;;2.33;;
55224;SDS011;41091;49.400;8.684;2023-02-01T05:41:23;3.92;;;2.88;;
55224;SDS011;41091;49.400;8.684;2023-02-01T05:43:51;3.10;;;2.78;;
55224;SDS011;41091;49.400;8.684;2023-02-01T05:46:19;3.97;;;3.15;;
55224;SDS011;41091;49.400;8.684;2023-02-01T05:48:46;6.78;;;2.92;;
55224;SDS011;41091;49.400;8.684;2023-02-01T05:51:12;2.75;;;2.65;;
55224;SDS011;41091;49.400;8.684;2023-02-01T05:53:37;2.58;;;2.28;;
55224;SDS011;41091;49.400;8.684;2023-02-01T05:56:03;5.32;;;2.97;;
55224;SDS011;41091;49.400;8.684;2023-02-01T05:58:29;3.00;;;2.85;;
55224;SDS011;41091;49.400;8.684;2023-02-01T06:00:55;3.38;;;2.50;;
55224;SDS011;41091;49.400;8.684;2023-02-01T06:03:22;6.57;;;3.78;;
55224;SDS011;41091;49.400;8.684;2023-02-01T06:05:47;3.92;;;3.15;;
55224;SDS011;41091;49.400;8.684;2023-02-01T06:08:13;11.32;;;3.78;;
55224;SDS011;41091;49.400;8.684;2023-02-01T06:10:39;12.88;;;4.00;;
55224;SDS011;41091;49.400;8.684;2023-02-01T06:13:04;4.35;;;3.40;;
55224;SDS011;41091;49.400;8.684;2023-02-01T06:15:30;8.07;;;3.22;;
55224;SDS011;41091;49.400;8.684;2023-02-01T06:17:56;6.35;;;2.92;;
55224;SDS011;41091;49.400;8.684;2023-02-01T06:20:21;7.80;;;3.25;;
55224;SDS011;41091;49.400;8.684;2023-02-01T06:22:49;5.90;;;3.50;;
55224;SDS011;41091;49.400;8.684;2023-02-01T06:25:17;4.65;;;3.60;;
55224;SDS011;41091;49.400;8.684;2023-02-01T06:27:43;3.72;;;3.30;;
55224;SDS011;41091;49.400;8.684;2023-02-01T06:30:10;5.53;;;3.33;;
55224;SDS011;41091;49.400;8.684;2023-02-01T06:32:38;6.18;;;3.42;;
55224;SDS011;41091;49.400;8.684;2023-02-01T06:35:07;7.18;;;3.40;;
55224;SDS011;41091;49.400;8.684;2023-02-01T06:37:38;5.75;;;3.85;;
55224;SDS011;41091;49.400;8.684;2023-02-01T06:40:04;7.57;;;3.65;;
55224;SDS011;41091;49.400;8.684;2023-02-01T06:42:32;6.93;;;3.70;;
55224;SDS011;41091;49.400;8.684;2023-02-01T06:44:58;5.80;;;2.97;;
55224;SDS011;41091;49.400;8.684;2023-02-01T06:47:23;5.30;;;3.22;;
55224;SDS011;41091;49.400;8.684;2023-02-01T06:49:48;7.60;;;3.85;;
55224;SDS011;41091;49.400;8.684;2023-02-01T06:52:14;6.93;;;4.03;;
55224;SDS011;41091;49.400;8.684;2023-02-01T06:54:39;4.97;;;3.55;;
55224;SDS011;41091;49.400;8.684;2023-02-01T06:57:04;7.13;;;4.30;;
55224;SDS011;41091;49.400;8.684;2023-02-01T06:59:30;8.68;;;3.90;;
55224;SDS011;41091;49.400;8.684;2023-02-01T07:01:55;6.63;;;4.78;;
55224;SDS011;41091;49.400;8.684;2023-02-01T07:04:23;13.23;;;4.30;;
55224;SDS011;41091;49.400;8.684;2023-02-01T07:06:48;7.55;;;4.25;;
55224;SDS011;41091;49.400;8.684;2023-02-01T07:09:13;5.38;;;4.60;;
55224;SDS011;41091;49.400;8.684;2023-02-01T07:11:39;6.68;;;4.78;;
55224;SDS011;41091;49.400;8.684;2023-02-01T07:14:09;6.43;;;4.38;;
55224;SDS011;41091;49.400;8.684;2023-02-01T07:16:35;12.85;;;4.35;;
55224;SDS011;41091;49.400;8.684;2023-02-01T07:19:00;9.23;;;4.45;;
55224;SDS011;41091;49.400;8.684;2023-02-01T07:21:26;5.20;;;4.07;;
55224;SDS011;41091;49.400;8.684;2023-02-01T07:23:52;7.93;;;3.63;;
55224;SDS011;41091;49.400;8.684;2023-02-01T07:26:18;8.15;;;3.95;;
55224;SDS011;41091;49.400;8.684;2023-02-01T07:28:44;4.28;;;3.90;;
55224;SDS011;41091;49.400;8.684;2023-02-01T07:31:11;7.55;;;3.63;;
55224;SDS011;41091;49.400;8.684;2023-02-01T07:33:40;8.48;;;4.88;;
55224;SDS011;41091;49.400;8.684;2023-02-01T07:36:06;7.18;;;4.03;;
55224;SDS011;41091;49.400;8.684;2023-02-01T07:38:32;17.38;;;9.27;;
55224;SDS011;41091;49.400;8.684;2023-02-01T07:41:01;12.05;;;4.00;;
55224;SDS011;41091;49.400;8.684;2023-02-01T07:43:28;6.45;;;3.70;;
55224;SDS011;41091;49.400;8.684;2023-02-01T07:45:56;16.55;;;3.38;;
55224;SDS011;41091;49.400;8.684;2023-02-01T07:48:22;5.38;;;4.05;;
55224;SDS011;41091;49.400;8.684;2023-02-01T07:50:48;10.10;;;3.47;;
55224;SDS011;41091;49.400;8.684;2023-02-01T07:53:14;5.13;;;2.83;;
55224;SDS011;41091;49.400;8.684;2023-02-01T07:55:39;4.22;;;2.70;;
55224;SDS011;41091;49.400;8.684;2023-02-01T07:58:05;10.82;;;3.35;;
55224;SDS011;41091;49.400;8.684;2023-02-01T08:00:30;5.88;;;3.97;;
55224;SDS011;41091;49.400;8.684;2023-02-01T08:03:17;5.95;;;3.67;;
55224;SDS011;41091;49.400;8.684;2023-02-01T08:05:44;9.98;;;3.67;;
55224;SDS011;41091;49.400;8.684;2023-02-01T08:08:10;12.93;;;5.60;;
55224;SDS011;41091;49.400;8.684;2023-02-01T08:10:35;5.07;;;4.55;;
55224;SDS011;41091;49.400;8.684;2023-02-01T08:13:01;8.02;;;4.95;;
55224;SDS011;41091;49.400;8.684;2023-02-01T08:15:27;9.10;;;4.63;;
55224;SDS011;41091;49.400;8.684;2023-02-01T08:17:53;8.07;;;3.70;;
55224;SDS011;41091;49.400;8.684;2023-02-01T08:20:25;6.72;;;4.20;;
55224;SDS011;41091;49.400;8.684;2023-02-01T08:22:53;8.95;;;3.92;;
55224;SDS011;41091;49.400;8.684;2023-02-01T08:25:19;6.45;;;2.95;;
55224;SDS011;41091;49.400;8.684;2023-02-01T08:27:45;8.05;;;3.72;;
55224;SDS011;41091;49.400;8.684;2023-02-01T08:30:11;7.00;;;3.00;;
55224;SDS011;41091;49.400;8.684;2023-02-01T08:32:39;11.65;;;3.75;;
55224;SDS011;41091;49.400;8.684;2023-02-01T08:35:05;11.75;;;4.30;;
55224;SDS011;41091;49.400;8.684;2023-02-01T08:37:30;13.13;;;4.03;;
55224;SDS011;41091;49.400;8.684;2023-02-01T08:39:56;13.13;;;4.53;;
55224;SDS011;41091;49.400;8.684;2023-02-01T08:42:21;12.77;;;4.05;;
55224;SDS011;41091;49.400;8.684;2023-02-01T08:45:06;9.90;;;4.28;;
55224;SDS011;41091;49.400;8.684;2023-02-01T08:47:32;9.18;;;4.15;;
55224;SDS011;41091;49.400;8.684;2023-02-01T08:49:58;10.05;;;4.20;;
55224;SDS011;41091;49.400;8.684;2023-02-01T08:52:23;10.40;;;3.92;;
55224;SDS011;41091;49.400;8.684;2023-02-01T08:54:51;13.45;;;3.55;;
55224;SDS011;41091;49.400;8.684;2023-02-01T08:57:16;10.07;;;3.92;;
55224;SDS011;41091;49.400;8.684;2023-02-01T08:59:42;15.02;;;4.15;;
55224;SDS011;41091;49.400;8.684;2023-02-01T09:02:11;13.68;;;4.78;;
55224;SDS011;41091;49.400;8.684;2023-02-01T09:04:41;7.30;;;3.65;;
55224;SDS011;41091;49.400;8.684;2023-02-01T09:07:06;5.78;;;3.97;;
55224;SDS011;41091;49.400;8.684;2023-02-01T09:09:33;11.55;;;3.90;;
55224;SDS011;41091;49.400;8.684;2023-02-01T09:12:03;13.13;;;3.47;;
55224;SDS011;41091;49.400;8.684;2023-02-01T09:14:29;9.20;;;3.95;;
55224;SDS011;41091;49.400;8.684;2023-02-01T09:16:54;7.55;;;3.42;;
55224;SDS011;41091;49.400;8.684;2023-02-01T09:19:20;6.65;;;3.83;;
55224;SDS011;41091;49.400;8.684;2023-02-01T09:21:45;18.98;;;4.78;;
55224;SDS011;41091;49.400;8.684;2023-02-01T09:24:13;15.40;;;4.18;;
55224;SDS011;41091;49.400;8.684;2023-02-01T09:26:38;18.05;;;5.68;;
55224;SDS011;41091;49.400;8.684;2023-02-01T09:29:04;9.95;;;4.30;;
55224;SDS011;41091;49.400;8.684;2023-02-01T09:31:33;12.48;;;4.65;;
55224;SDS011;41091;49.400;8.684;2023-02-01T09:34:01;15.95;;;3.28;;
55224;SDS011;41091;49.400;8.684;2023-02-01T09:36:27;8.88;;;3.08;;
55224;SDS011;41091;49.400;8.684;2023-02-01T09:38:52;6.25;;;2.90;;
55224;SDS011;41091;49.400;8.684;2023-02-01T09:46:40;8.30;;;3.33;;
55224;SDS011;41091;49.400;8.684;2023-02-01T09:49:09;10.30;;;3.38;;
55224;SDS011;41091;49.400;8.684;2023-02-01T09:51:40;8.82;;;4.22;;
55224;SDS011;41091;49.400;8.684;2023-02-01T09:54:29;8.77;;;3.05;;
55224;SDS011;41091;49.400;8.684;2023-02-01T10:00:34;9.18;;;2.80;;
55224;SDS011;41091;49.400;8.684;2023-02-01T10:03:00;9.02;;;2.65;;
55224;SDS011;41091;49.400;8.684;2023-02-01T10:05:39;18.20;;;3.28;;
55224;SDS011;41091;49.400;8.684;2023-02-01T10:22:14;12.27;;;3.08;;
55224;SDS011;41091;49.400;8.684;2023-02-01T10:27:33;12.80;;;2.80;;
55224;SDS011;41091;49.400;8.684;2023-02-01T10:30:06;19.63;;;3.58;;
55224;SDS011;41091;49.400;8.684;2023-02-01T10:32:45;10.73;;;1.98;;
55224;SDS011;41091;49.400;8.684;2023-02-01T10:35:18;6.68;;;2.50;;
55224;SDS011;41091;49.400;8.684;2023-02-01T10:37:48;3.35;;;1.80;;
55224;SDS011;41091;49.400;8.684;2023-02-01T10:42:44;5.22;;;1.95;;
55224;SDS011;41091;49.400;8.684;2023-02-01T10:45:13;10.13;;;2.38;;
55224;SDS011;41091;49.400;8.684;2023-02-01T10:47:43;10.57;;;2.28;;
55224;SDS011;41091;49.400;8.684;2023-02-01T10:52:58;15.48;;;2.90;;
55224;SDS011;41091;49.400;8.684;2023-02-01T10:58:00;10.70;;;2.47;;
55224;SDS011;41091;49.400;8.684;2023-02-01T11:00:27;11.13;;;2.58;;
55224;SDS011;41091;49.400;8.684;2023-02-01T11:02:53;10.95;;;1.98;;
55224;SDS011;41091;49.400;8.684;2023-02-01T11:05:19;10.57;;;2.20;;
55224;SDS011;41091;49.400;8.684;2023-02-01T11:07:51;7.68;;;2.20;;
55224;SDS011;41091;49.400;8.684;2023-02-01T11:10:39;13.13;;;1.73;;
55224;SDS011;41091;49.400;8.684;2023-02-01T11:13:16;9.70;;;2.10;;
55224;SDS011;41091;49.400;8.684;2023-02-01T11:15:46;10.93;;;2.90;;
55224;SDS011;41091;49.400;8.684;2023-02-01T11:18:19;17.27;;;2.45;;
55224;SDS011;41091;49.400;8.684;2023-02-01T11:20:46;17.65;;;2.22;;
55224;SDS011;41091;49.400;8.684;2023-02-01T11:23:17;11.50;;;1.90;;
55224;SDS011;41091;49.400;8.684;2023-02-01T11:25:52;11.77;;;2.45;;
55224;SDS011;41091;49.400;8.684;2023-02-01T11:28:26;12.20;;;2.53;;
55224;SDS011;41091;49.400;8.684;2023-02-01T11:30:54;9.90;;;2.05;;
55224;SDS011;41091;49.400;8.684;2023-02-01T11:33:24;9.70;;;2.20;;
55224;SDS011;41091;49.400;8.684;2023-02-01T11:35:52;11.35;;;2.25;;
55224;SDS011;41091;49.400;8.684;2023-02-01T11:40:46;7.80;;;2.78;;
55224;SDS011;41091;49.400;8.684;2023-02-01T11:45:37;17.48;;;3.28;;
55224;SDS011;41091;49.400;8.684;2023-02-01T11:48:06;19.67;;;3.75;;
55224;SDS011;41091;49.400;8.684;2023-02-01T11:50:57;18.38;;;2.55;;
55224;SDS011;41091;49.400;8.684;2023-02-01T11:59:12;14.43;;;2.70;;
55224;SDS011;41091;49.400;8.684;2023-02-01T12:02:19;18.77;;;2.80;;
55224;SDS011;41091;49.400;8.684;2023-02-01T12:13:34;13.85;;;2.60;;
55224;SDS011;41091;49.400;8.684;2023-02-01T12:18:38;11.25;;;2.90;;
55224;SDS011;41091;49.400;8.684;2023-02-01T12:24:08;10.95;;;2.03;;
55224;SDS011;41091;49.400;8.684;2023-02-01T12:26:47;15.02;;;3.13;;
55224;SDS011;41091;49.400;8.684;2023-02-01T12:35:36;12.27;;;2.60;;
55224;SDS011;41091;49.400;8.684;2023-02-01T12:46:46;8.65;;;1.60;;
55224;SDS011;41091;49.400;8.684;2023-02-01T12:51:58;12.18;;;1.95;;
55224;SDS011;41091;49.400;8.684;2023-02-01T12:54:39;6.22;;;2.35;;
55224;SDS011;41091;49.400;8.684;2023-02-01T12:57:12;12.25;;;2.63;;
55224;SDS011;41091;49.400;8.684;2023-02-01T13:07:28;4.72;;;1.65;;
55224;SDS011;41091;49.400;8.684;2023-02-01T13:10:02;13.00;;;2.03;;
55224;SDS011;41091;49.400;8.684;2023-02-01T13:12:37;14.07;;;2.50;;
55224;SDS011;41091;49.400;8.684;2023-02-01T13:15:13;10.88;;;2.03;;
55224;SDS011;41091;49.400;8.684;2023-02-01T13:22:54;7.65;;;2.50;;
55224;SDS011;41091;49.400;8.684;2023-02-01T13:28:06;11.13;;;2.05;;
55224;SDS011;41091;49.400;8.684;2023-02-01T13:41:55;11.77;;;2.30;;
55224;SDS011;41091;49.400;8.684;2023-02-01T13:45:12;24.60;;;2.60;;
55224;SDS011;41091;49.400;8.684;2023-02-01T13:47:20;11.95;;;2.92;;
55224;SDS011;41091;49.400;8.684;2023-02-01T13:49:46;16.30;;;2.25;;
55224;SDS011;41091;49.400;8.684;2023-02-01T13:52:30;11.38;;;2.53;;
55224;SDS011;41091;49.400;8.684;2023-02-01T13:55:43;13.38;;;2.90;;
55224;SDS011;41091;49.400;8.684;2023-02-01T13:58:00;8.60;;;2.38;;
55224;SDS011;41091;49.400;8.684;2023-02-01T14:00:33;12.38;;;2.58;;
55224;SDS011;41091;49.400;8.684;2023-02-01T14:23:43;10.73;;;2.08;;
55224;SDS011;41091;49.400;8.684;2023-02-01T14:26:11;11.90;;;2.53;;
55224;SDS011;41091;49.400;8.684;2023-02-01T14:28:54;5.78;;;2.00;;
55224;SDS011;41091;49.400;8.684;2023-02-01T14:34:14;18.80;;;3.22;;
55224;SDS011;41091;49.400;8.684;2023-02-01T14:36:44;7.13;;;2.03;;
55224;SDS011;41091;49.400;8.684;2023-02-01T14:39:25;13.10;;;2.22;;
55224;SDS011;41091;49.400;8.684;2023-02-01T14:41:52;11.77;;;3.05;;
55224;SDS011;41091;49.400;8.684;2023-02-01T14:44:24;13.05;;;1.95;;
55224;SDS011;41091;49.400;8.684;2023-02-01T14:49:39;17.80;;;2.67;;
55224;SDS011;41091;49.400;8.684;2023-02-01T14:52:14;5.95;;;1.92;;
55224;SDS011;41091;49.400;8.684;2023-02-01T14:54:46;13.50;;;2.45;;
55224;SDS011;41091;49.400;8.684;2023-02-01T14:57:16;28.60;;;2.47;;
55224;SDS011;41091;49.400;8.684;2023-02-01T14:59:46;11.45;;;2.58;;
55224;SDS011;41091;49.400;8.684;2023-02-01T15:02:18;15.25;;;2.05;;
55224;SDS011;41091;49.400;8.684;2023-02-01T15:04:46;13.88;;;1.83;;
55224;SDS011;41091;49.400;8.684;2023-02-01T15:07:19;12.95;;;1.92;;
55224;SDS011;41091;49.400;8.684;2023-02-01T15:09:47;15.10;;;2.33;;
55224;SDS011;41091;49.400;8.684;2023-02-01T15:17:57;10.50;;;2.30;;
55224;SDS011;41091;49.400;8.684;2023-02-01T15:20:34;19.40;;;2.35;;
55224;SDS011;41091;49.400;8.684;2023-02-01T15:23:14;18.00;;;2.92;;
55224;SDS011;41091;49.400;8.684;2023-02-01T15:25:45;14.93;;;2.33;;
55224;SDS011;41091;49.400;8.684;2023-02-01T15:28:12;11.88;;;1.95;;
55224;SDS011;41091;49.400;8.684;2023-02-01T15:30:51;15.20;;;2.72;;
55224;SDS011;41091;49.400;8.684;2023-02-01T15:33:23;6.25;;;1.95;;
55224;SDS011;41091;49.400;8.684;2023-02-01T15:35:51;6.07;;;1.92;;
55224;SDS011;41091;49.400;8.684;2023-02-01T15:41:01;8.93;;;1.92;;
55224;SDS011;41091;49.400;8.684;2023-02-01T15:43:29;7.30;;;2.28;;
55224;SDS011;41091;49.400;8.684;2023-02-01T15:46:00;5.82;;;2.58;;
55224;SDS011;41091;49.400;8.684;2023-02-01T15:50:57;9.20;;;1.55;;
55224;SDS011;41091;49.400;8.684;2023-02-01T15:53:24;6.25;;;1.50;;
55224;SDS011;41091;49.400;8.684;2023-02-01T15:55:55;12.57;;;1.80;;
55224;SDS011;41091;49.400;8.684;2023-02-01T16:00:53;13.23;;;2.15;;
55224;SDS011;41091;49.400;8.684;2023-02-01T16:03:34;13.98;;;2.55;;
55224;SDS011;41091;49.400;8.684;2023-02-01T16:06:05;14.68;;;2.33;;
55224;SDS011;41091;49.400;8.684;2023-02-01T16:08:34;19.52;;;2.80;;
55224;SDS011;41091;49.400;8.684;2023-02-01T16:13:34;17.48;;;2.03;;
55224;SDS011;41091;49.400;8.684;2023-02-01T16:15:59;11.15;;;2.72;;
55224;SDS011;41091;49.400;8.684;2023-02-01T16:18:25;9.07;;;1.75;;
55224;SDS011;41091;49.400;8.684;2023-02-01T16:20:50;16.00;;;1.90;;
55224;SDS011;41091;49.400;8.684;2023-02-01T16:23:15;19.17;;;3.88;;
55224;SDS011;41091;49.400;8.684;2023-02-01T16:25:41;18.13;;;3.15;;
55224;SDS011;41091;49.400;8.684;2023-02-01T16:28:06;12.88;;;2.67;;
55224;SDS011;41091;49.400;8.684;2023-02-01T16:30:34;4.80;;;2.22;;
55224;SDS011;41091;49.400;8.684;2023-02-01T16:33:02;20.77;;;2.75;;
55224;SDS011;41091;49.400;8.684;2023-02-01T16:35:34;15.63;;;2.37;;
55224;SDS011;41091;49.400;8.684;2023-02-01T16:38:05;11.32;;;3.10;;
55224;SDS011;41091;49.400;8.684;2023-02-01T16:40:37;14.15;;;3.25;;
55224;SDS011;41091;49.400;8.684;2023-02-01T16:43:39;13.30;;;1.85;;
55224;SDS011;41091;49.400;8.684;2023-02-01T16:46:00;21.02;;;2.70;;
55224;SDS011;41091;49.400;8.684;2023-02-01T16:48:29;11.52;;;2.28;;
55224;SDS011;41091;49.400;8.684;2023-02-01T16:50:58;11.70;;;2.05;;
55224;SDS011;41091;49.400;8.684;2023-02-01T16:53:25;13.65;;;1.75;;
55224;SDS011;41091;49.400;8.684;2023-02-01T16:55:53;11.50;;;2.13;;
55224;SDS011;41091;49.400;8.684;2023-02-01T16:58:21;12.85;;;2.67;;
55224;SDS011;41091;49.400;8.684;2023-02-01T17:00:49;22.20;;;2.40;;
55224;SDS011;41091;49.400;8.684;2023-02-01T17:03:16;13.23;;;2.30;;
55224;SDS011;41091;49.400;8.684;2023-02-01T17:05:45;15.82;;;2.78;;
55224;SDS011;41091;49.400;8.684;2023-02-01T17:08:20;9.73;;;1.90;;
55224;SDS011;41091;49.400;8.684;2023-02-01T17:10:52;13.27;;;2.90;;
55224;SDS011;41091;49.400;8.684;2023-02-01T17:13:17;8.73;;;2.40;;
55224;SDS011;41091;49.400;8.684;2023-02-01T17:16:04;7.03;;;2.17;;
55224;SDS011;41091;49.400;8.684;2023-02-01T17:18:30;10.05;;;2.92;;
55224;SDS011;41091;49.400;8.684;2023-02-01T17:20:58;11.45;;;2.80;;
55224;SDS011;41091;49.400;8.684;2023-02-01T17:23:24;13.30;;;3.13;;
55224;SDS011;41091;49.400;8.684;2023-02-01T17:25:50;16.67;;;4.85;;
55224;SDS011;41091;49.400;8.684;2023-02-01T17:28:16;16.77;;;3.63;;
55224;SDS011;41091;49.400;8.684;2023-02-01T17:30:41;13.15;;;3.13;;
55224;SDS011;41091;49.400;8.684;2023-02-01T17:33:18;15.95;;;3.10;;
55224;SDS011;41091;49.400;8.684;2023-02-01T17:35:46;12.30;;;3.03;;
55224;SDS011;41091;49.400;8.684;2023-02-01T17:38:12;10.48;;;3.28;;
55224;SDS011;41091;49.400;8.684;2023-02-01T17:40:37;11.75;;;2.75;;
55224;SDS011;41091;49.400;8.684;2023-02-01T17:43:03;13.13;;;3.10;;
55224;SDS011;41091;49.400;8.684;2023-02-01T17:45:34;9.25;;;2.90;;
55224;SDS011;41091;49.400;8.684;2023-02-01T17:48:06;12.20;;;2.08;;
55224;SDS011;41091;49.400;8.684;2023-02-01T17:50:35;10.98;;;2.20;;
55224;SDS011;41091;49.400;8.684;2023-02-01T17:53:01;13.70;;;2.90;;
55224;SDS011;41091;49.400;8.684;2023-02-01T17:55:27;12.27;;;2.20;;
55224;SDS011;41091;49.400;8.684;2023-02-01T17:57:57;15.82;;;2.17;;